sensor_id;sensor_type;location;lat;lon;timestamp;P1;durP1;ratioP1;P2;durP2;ratioP2
26062;SDS011;13837;48.562;12.108;2023-02-03T00:01:53;15.35;;;14.45;;
26062;SDS011;13837;48.562;12.108;2023-02-03T00:04:19;15.55;;;14.43;;
26062;SDS011;13837;48.562;12.108;2023-02-03T00:06:46;15.32;;;14.20;;
26062;SDS011;13837;48.562;12.108;2023-02-03T00:09:12;15.63;;;14.45;;
26062;SDS011;13837;48.562;12.108;2023-02-03T00:11:38;14.98;;;14.18;;
26062;SDS011;13837;48.562;12.108;2023-02-03T00:14:04;14.93;;;13.93;;
26062;SDS011;13837;48.562;12.108;2023-02-03T00:16:32;15.48;;;14.52;;
26062;SDS011;13837;48.562;12.108;2023-02-03T00:18:58;14.40;;;13.60;;
26062;SDS011;13837;48.562;12.108;2023-02-03T00:21:24;15.30;;;14.30;;
26062;SDS011;13837;48.562;12.108;2023-02-03T00:23:50;13.52;;;12.77;;
26062;SDS011;13837;48.562;12.108;2023-02-03T00:26:18;13.45;;;12.55;;
26062;SDS011;13837;48.562;12.108;2023-02-03T00:28:45;14.90;;;14.00;;
26062;SDS011;13837;48.562;12.108;2023-02-03T00:31:19;13.82;;;13.02;;
26062;SDS011;13837;48.562;12.108;2023-02-03T00:33:45;13.70;;;12.60;;
26062;SDS011;13837;48.562;12.108;2023-02-03T00:36:12;13.45;;;12.50;;
26062;SDS011;13837;48.562;12.108;2023-02-03T00:38:38;13.25;;;12.52;;
26062;SDS011;13837;48.562;12.108;2023-02-03T00:41:04;13.70;;;12.80;;
26062;SDS011;13837;48.562;12.108;2023-02-03T00:43:30;13.73;;;12.68;;
26062;SDS011;13837;48.562;12.108;2023-02-03T00:45:56;13.52;;;12.65;;
26062;SDS011;13837;48.562;12.108;2023-02-03T00:48:22;14.05;;;13.07;;
26062;SDS011;13837;48.562;12.108;2023-02-03T00:50:48;13.88;;;13.18;;
26062;SDS011;13837;48.562;12.108;2023-02-03T00:53:14;14.32;;;13.50;;
26062;SDS011;13837;48.562;12.108;2023-02-03T00:55:44;14.23;;;13.45;;
26062;SDS011;13837;48.562;12.108;2023-02-03T00:58:10;15.05;;;14.00;;
26062;SDS011;13837;48.562;12.108;2023-02-03T01:00:36;14.40;;;13.48;;
26062;SDS011;13837;48.562;12.108;2023-02-03T01:03:02;14.63;;;13.60;;
26062;SDS011;13837;48.562;12.108;2023-02-03T01:05:28;14.38;;;13.57;;
26062;SDS011;13837;48.562;12.108;2023-02-03T01:07:54;15.02;;;13.88;;
26062;SDS011;13837;48.562;12.108;2023-02-03T01:10:20;14.60;;;13.80;;
26062;SDS011;13837;48.562;12.108;2023-02-03T01:12:48;15.02;;;14.13;;
26062;SDS011;13837;48.562;12.108;2023-02-03T01:15:14;14.18;;;13.45;;
26062;SDS011;13837;48.562;12.108;2023-02-03T01:17:41;14.50;;;13.55;;
26062;SDS011;13837;48.562;12.108;2023-02-03T01:20:07;14.30;;;13.50;;
26062;SDS011;13837;48.562;12.108;2023-02-03T01:22:36;15.10;;;14.05;;
26062;SDS011;13837;48.562;12.108;2023-02-03T01:25:02;14.43;;;13.48;;
26062;SDS011;13837;48.562;12.108;2023-02-03T01:27:30;14.00;;;13.20;;
26062;SDS011;13837;48.562;12.108;2023-02-03T01:29:56;13.80;;;13.10;;
26062;SDS011;13837;48.562;12.108;2023-02-03T01:32:22;13.73;;;13.02;;
26062;SDS011;13837;48.562;12.108;2023-02-03T01:34:48;14.30;;;13.40;;
26062;SDS011;13837;48.562;12.108;2023-02-03T01:37:14;14.00;;;13.18;;
26062;SDS011;13837;48.562;12.108;2023-02-03T01:39:42;14.88;;;13.98;;
26062;SDS011;13837;48.562;12.108;2023-02-03T01:42:12;13.65;;;12.85;;
26062;SDS011;13837;48.562;12.108;2023-02-03T01:44:39;14.07;;;13.27;;
26062;SDS011;13837;48.562;12.108;2023-02-03T01:49:55;14.20;;;13.38;;
26062;SDS011;13837;48.562;12.108;2023-02-03T01:52:23;15.15;;;14.05;;
26062;SDS011;13837;48.562;12.108;2023-02-03T01:54:49;13.77;;;12.88;;
26062;SDS011;13837;48.562;12.108;2023-02-03T01:57:59;15.32;;;14.30;;
26062;SDS011;13837;48.562;12.108;2023-02-03T02:02:38;14.50;;;13.55;;
26062;SDS011;13837;48.562;12.108;2023-02-03T02:05:06;14.25;;;13.43;;
26062;SDS011;13837;48.562;12.108;2023-02-03T02:07:34;14.30;;;13.45;;
26062;SDS011;13837;48.562;12.108;2023-02-03T02:10:01;14.45;;;13.60;;
26062;SDS011;13837;48.562;12.108;2023-02-03T02:12:28;14.68;;;13.77;;
26062;SDS011;13837;48.562;12.108;2023-02-03T02:14:54;14.68;;;13.50;;
26062;SDS011;13837;48.562;12.108;2023-02-03T02:17:35;14.27;;;13.27;;
26062;SDS011;13837;48.562;12.108;2023-02-03T02:22:40;14.50;;;13.50;;
26062;SDS011;13837;48.562;12.108;2023-02-03T02:27:59;14.70;;;13.88;;
26062;SDS011;13837;48.562;12.108;2023-02-03T02:30:35;15.38;;;14.32;;
26062;SDS011;13837;48.562;12.108;2023-02-03T02:33:17;14.88;;;14.18;;
26062;SDS011;13837;48.562;12.108;2023-02-03T02:40:54;15.38;;;14.52;;
26062;SDS011;13837;48.562;12.108;2023-02-03T02:43:25;15.85;;;14.80;;
26062;SDS011;13837;48.562;12.108;2023-02-03T02:45:53;15.23;;;14.43;;
26062;SDS011;13837;48.562;12.108;2023-02-03T02:48:25;15.80;;;14.70;;
26062;SDS011;13837;48.562;12.108;2023-02-03T02:50:52;14.82;;;13.95;;
26062;SDS011;13837;48.562;12.108;2023-02-03T02:53:20;14.15;;;13.25;;
26062;SDS011;13837;48.562;12.108;2023-02-03T02:55:48;15.02;;;13.85;;
26062;SDS011;13837;48.562;12.108;2023-02-03T02:58:15;13.68;;;12.98;;
26062;SDS011;13837;48.562;12.108;2023-02-03T03:00:43;14.98;;;14.18;;
26062;SDS011;13837;48.562;12.108;2023-02-03T03:03:11;15.25;;;14.07;;
26062;SDS011;13837;48.562;12.108;2023-02-03T03:05:37;15.15;;;14.07;;
26062;SDS011;13837;48.562;12.108;2023-02-03T03:08:05;14.80;;;13.85;;
26062;SDS011;13837;48.562;12.108;2023-02-03T03:10:32;14.77;;;13.90;;
26062;SDS011;13837;48.562;12.108;2023-02-03T03:13:01;15.23;;;14.23;;
26062;SDS011;13837;48.562;12.108;2023-02-03T03:15:29;14.73;;;13.93;;
26062;SDS011;13837;48.562;12.108;2023-02-03T03:20:25;15.70;;;14.70;;
26062;SDS011;13837;48.562;12.108;2023-02-03T03:22:54;15.55;;;14.55;;
26062;SDS011;13837;48.562;12.108;2023-02-03T03:25:27;15.38;;;14.43;;
26062;SDS011;13837;48.562;12.108;2023-02-03T03:27:56;14.75;;;13.88;;
26062;SDS011;13837;48.562;12.108;2023-02-03T03:30:32;15.45;;;14.55;;
26062;SDS011;13837;48.562;12.108;2023-02-03T03:32:58;14.90;;;14.02;;
26062;SDS011;13837;48.562;12.108;2023-02-03T03:35:27;15.02;;;14.13;;
26062;SDS011;13837;48.562;12.108;2023-02-03T03:37:55;14.18;;;13.52;;
26062;SDS011;13837;48.562;12.108;2023-02-03T03:40:27;15.23;;;14.07;;
26062;SDS011;13837;48.562;12.108;2023-02-03T03:47:52;14.82;;;13.82;;
26062;SDS011;13837;48.562;12.108;2023-02-03T03:50:24;14.77;;;13.80;;
26062;SDS011;13837;48.562;12.108;2023-02-03T03:52:52;15.63;;;14.40;;
26062;SDS011;13837;48.562;12.108;2023-02-03T03:55:19;14.77;;;13.80;;
26062;SDS011;13837;48.562;12.108;2023-02-03T03:58:02;14.40;;;13.50;;
26062;SDS011;13837;48.562;12.108;2023-02-03T04:00:29;15.07;;;13.82;;
26062;SDS011;13837;48.562;12.108;2023-02-03T04:02:57;15.13;;;14.23;;
26062;SDS011;13837;48.562;12.108;2023-02-03T04:05:24;14.48;;;13.68;;
26062;SDS011;13837;48.562;12.108;2023-02-03T04:07:51;14.43;;;13.73;;
26062;SDS011;13837;48.562;12.108;2023-02-03T04:10:25;14.30;;;13.52;;
26062;SDS011;13837;48.562;12.108;2023-02-03T04:12:52;15.18;;;13.95;;
26062;SDS011;13837;48.562;12.108;2023-02-03T04:15:18;14.45;;;13.63;;
26062;SDS011;13837;48.562;12.108;2023-02-03T04:17:44;14.63;;;13.52;;
26062;SDS011;13837;48.562;12.108;2023-02-03T04:20:10;14.18;;;13.27;;
26062;SDS011;13837;48.562;12.108;2023-02-03T04:22:36;14.00;;;13.25;;
26062;SDS011;13837;48.562;12.108;2023-02-03T04:25:02;14.10;;;13.35;;
26062;SDS011;13837;48.562;12.108;2023-02-03T04:27:28;12.95;;;12.13;;
26062;SDS011;13837;48.562;12.108;2023-02-03T04:29:54;13.55;;;12.75;;
26062;SDS011;13837;48.562;12.108;2023-02-03T04:32:20;13.10;;;12.40;;
26062;SDS011;13837;48.562;12.108;2023-02-03T04:34:46;13.38;;;12.68;;
26062;SDS011;13837;48.562;12.108;2023-02-03T04:37:13;13.52;;;12.63;;
26062;SDS011;13837;48.562;12.108;2023-02-03T04:39:39;12.90;;;12.30;;
26062;SDS011;13837;48.562;12.108;2023-02-03T04:42:05;13.07;;;12.20;;
26062;SDS011;13837;48.562;12.108;2023-02-03T04:44:31;13.68;;;13.00;;
26062;SDS011;13837;48.562;12.108;2023-02-03T04:46:57;13.60;;;12.90;;
26062;SDS011;13837;48.562;12.108;2023-02-03T04:49:23;13.15;;;12.45;;
26062;SDS011;13837;48.562;12.108;2023-02-03T04:51:49;12.85;;;12.15;;
26062;SDS011;13837;48.562;12.108;2023-02-03T04:54:15;13.60;;;12.90;;
26062;SDS011;13837;48.562;12.108;2023-02-03T04:56:41;13.05;;;12.35;;
26062;SDS011;13837;48.562;12.108;2023-02-03T04:59:07;13.88;;;13.20;;
26062;SDS011;13837;48.562;12.108;2023-02-03T05:01:33;13.38;;;12.65;;
26062;SDS011;13837;48.562;12.108;2023-02-03T05:03:59;14.02;;;13.20;;
26062;SDS011;13837;48.562;12.108;2023-02-03T05:06:26;14.15;;;13.35;;
26062;SDS011;13837;48.562;12.108;2023-02-03T05:08:58;14.30;;;13.45;;
26062;SDS011;13837;48.562;12.108;2023-02-03T05:11:25;13.68;;;12.95;;
26062;SDS011;13837;48.562;12.108;2023-02-03T05:13:51;12.95;;;12.35;;
26062;SDS011;13837;48.562;12.108;2023-02-03T05:16:17;12.73;;;12.13;;
26062;SDS011;13837;48.562;12.108;2023-02-03T05:18:43;13.85;;;13.15;;
26062;SDS011;13837;48.562;12.108;2023-02-03T05:21:09;13.10;;;12.48;;
26062;SDS011;13837;48.562;12.108;2023-02-03T05:23:35;13.43;;;12.52;;
26062;SDS011;13837;48.562;12.108;2023-02-03T05:26:02;14.15;;;13.25;;
26062;SDS011;13837;48.562;12.108;2023-02-03T05:28:28;14.00;;;13.30;;
26062;SDS011;13837;48.562;12.108;2023-02-03T05:30:56;14.23;;;13.48;;
26062;SDS011;13837;48.562;12.108;2023-02-03T05:33:22;14.63;;;13.82;;
26062;SDS011;13837;48.562;12.108;2023-02-03T05:35:48;13.88;;;13.10;;
26062;SDS011;13837;48.562;12.108;2023-02-03T05:38:15;13.02;;;12.23;;
26062;SDS011;13837;48.562;12.108;2023-02-03T05:40:41;12.55;;;11.95;;
26062;SDS011;13837;48.562;12.108;2023-02-03T05:43:26;12.63;;;12.02;;
26062;SDS011;13837;48.562;12.108;2023-02-03T05:45:52;13.77;;;12.90;;
26062;SDS011;13837;48.562;12.108;2023-02-03T05:48:18;13.10;;;12.40;;
26062;SDS011;13837;48.562;12.108;2023-02-03T05:50:44;13.60;;;12.88;;
26062;SDS011;13837;48.562;12.108;2023-02-03T05:53:10;13.70;;;12.48;;
26062;SDS011;13837;48.562;12.108;2023-02-03T05:55:36;13.48;;;12.68;;
26062;SDS011;13837;48.562;12.108;2023-02-03T05:58:03;13.40;;;12.60;;
26062;SDS011;13837;48.562;12.108;2023-02-03T06:00:29;13.15;;;12.52;;
26062;SDS011;13837;48.562;12.108;2023-02-03T06:02:56;13.00;;;12.30;;
26062;SDS011;13837;48.562;12.108;2023-02-03T06:05:23;11.98;;;11.48;;
26062;SDS011;13837;48.562;12.108;2023-02-03T06:07:49;13.13;;;12.52;;
26062;SDS011;13837;48.562;12.108;2023-02-03T06:10:16;12.73;;;12.05;;
26062;SDS011;13837;48.562;12.108;2023-02-03T06:12:43;12.60;;;11.90;;
26062;SDS011;13837;48.562;12.108;2023-02-03T06:15:09;13.82;;;13.10;;
26062;SDS011;13837;48.562;12.108;2023-02-03T06:17:36;13.20;;;12.50;;
26062;SDS011;13837;48.562;12.108;2023-02-03T06:20:06;13.05;;;12.45;;
26062;SDS011;13837;48.562;12.108;2023-02-03T06:22:32;13.27;;;12.68;;
26062;SDS011;13837;48.562;12.108;2023-02-03T06:24:58;13.88;;;12.93;;
26062;SDS011;13837;48.562;12.108;2023-02-03T06:27:24;13.77;;;12.98;;
26062;SDS011;13837;48.562;12.108;2023-02-03T06:29:50;13.68;;;12.68;;
26062;SDS011;13837;48.562;12.108;2023-02-03T06:32:16;13.00;;;12.40;;
26062;SDS011;13837;48.562;12.108;2023-02-03T06:34:42;13.40;;;12.70;;
26062;SDS011;13837;48.562;12.108;2023-02-03T06:37:08;12.98;;;12.30;;
26062;SDS011;13837;48.562;12.108;2023-02-03T06:39:35;13.27;;;12.48;;
26062;SDS011;13837;48.562;12.108;2023-02-03T06:42:01;12.50;;;11.90;;
26062;SDS011;13837;48.562;12.108;2023-02-03T06:44:28;13.40;;;12.50;;
26062;SDS011;13837;48.562;12.108;2023-02-03T06:46:54;13.07;;;12.30;;
26062;SDS011;13837;48.562;12.108;2023-02-03T06:49:20;13.02;;;12.30;;
26062;SDS011;13837;48.562;12.108;2023-02-03T06:51:46;14.50;;;13.77;;
26062;SDS011;13837;48.562;12.108;2023-02-03T06:54:13;13.27;;;12.68;;
26062;SDS011;13837;48.562;12.108;2023-02-03T06:56:39;12.88;;;12.27;;
26062;SDS011;13837;48.562;12.108;2023-02-03T06:59:05;13.30;;;12.60;;
26062;SDS011;13837;48.562;12.108;2023-02-03T07:01:32;13.80;;;12.70;;
26062;SDS011;13837;48.562;12.108;2023-02-03T07:03:58;12.80;;;12.30;;
26062;SDS011;13837;48.562;12.108;2023-02-03T07:06:25;12.65;;;12.05;;
26062;SDS011;13837;48.562;12.108;2023-02-03T07:09:00;12.73;;;12.00;;
26062;SDS011;13837;48.562;12.108;2023-02-03T07:11:26;13.25;;;12.45;;
26062;SDS011;13837;48.562;12.108;2023-02-03T07:13:52;13.25;;;12.68;;
26062;SDS011;13837;48.562;12.108;2023-02-03T07:16:19;13.40;;;12.70;;
26062;SDS011;13837;48.562;12.108;2023-02-03T07:18:45;13.60;;;12.90;;
26062;SDS011;13837;48.562;12.108;2023-02-03T07:21:11;13.25;;;12.60;;
26062;SDS011;13837;48.562;12.108;2023-02-03T07:23:38;14.70;;;13.80;;
26062;SDS011;13837;48.562;12.108;2023-02-03T07:26:04;13.95;;;13.25;;
26062;SDS011;13837;48.562;12.108;2023-02-03T07:28:31;13.13;;;12.60;;
26062;SDS011;13837;48.562;12.108;2023-02-03T07:30:57;14.60;;;13.27;;
26062;SDS011;13837;48.562;12.108;2023-02-03T07:33:24;13.82;;;13.00;;
26062;SDS011;13837;48.562;12.108;2023-02-03T07:35:51;13.70;;;13.00;;
26062;SDS011;13837;48.562;12.108;2023-02-03T07:38:17;13.35;;;12.65;;
26062;SDS011;13837;48.562;12.108;2023-02-03T07:40:43;13.30;;;12.70;;
26062;SDS011;13837;48.562;12.108;2023-02-03T07:43:09;13.90;;;13.00;;
26062;SDS011;13837;48.562;12.108;2023-02-03T07:45:35;13.35;;;12.65;;
26062;SDS011;13837;48.562;12.108;2023-02-03T07:48:01;13.30;;;12.60;;
26062;SDS011;13837;48.562;12.108;2023-02-03T07:50:27;13.35;;;12.48;;
26062;SDS011;13837;48.562;12.108;2023-02-03T07:52:53;13.32;;;12.52;;
26062;SDS011;13837;48.562;12.108;2023-02-03T07:55:20;13.10;;;12.30;;
26062;SDS011;13837;48.562;12.108;2023-02-03T07:57:46;13.50;;;12.73;;
26062;SDS011;13837;48.562;12.108;2023-02-03T08:00:12;13.77;;;12.95;;
26062;SDS011;13837;48.562;12.108;2023-02-03T08:02:40;13.15;;;12.45;;
26062;SDS011;13837;48.562;12.108;2023-02-03T08:05:06;13.27;;;12.68;;
26062;SDS011;13837;48.562;12.108;2023-02-03T08:07:32;13.55;;;12.75;;
26062;SDS011;13837;48.562;12.108;2023-02-03T08:09:58;12.60;;;11.95;;
26062;SDS011;13837;48.562;12.108;2023-02-03T08:12:24;12.32;;;11.82;;
26062;SDS011;13837;48.562;12.108;2023-02-03T08:14:50;12.35;;;11.70;;
26062;SDS011;13837;48.562;12.108;2023-02-03T08:17:17;13.23;;;12.52;;
26062;SDS011;13837;48.562;12.108;2023-02-03T08:19:43;10.82;;;10.35;;
26062;SDS011;13837;48.562;12.108;2023-02-03T08:22:09;10.60;;;9.88;;
26062;SDS011;13837;48.562;12.108;2023-02-03T08:24:44;9.85;;;9.07;;
26062;SDS011;13837;48.562;12.108;2023-02-03T08:27:11;12.68;;;12.10;;
26062;SDS011;13837;48.562;12.108;2023-02-03T08:29:37;13.77;;;12.98;;
26062;SDS011;13837;48.562;12.108;2023-02-03T08:32:04;12.57;;;11.88;;
26062;SDS011;13837;48.562;12.108;2023-02-03T08:34:30;12.50;;;11.88;;
26062;SDS011;13837;48.562;12.108;2023-02-03T08:36:58;12.70;;;12.00;;
26062;SDS011;13837;48.562;12.108;2023-02-03T08:39:24;12.65;;;12.02;;
26062;SDS011;13837;48.562;12.108;2023-02-03T08:41:51;12.57;;;11.80;;
26062;SDS011;13837;48.562;12.108;2023-02-03T08:44:17;12.55;;;11.65;;
26062;SDS011;13837;48.562;12.108;2023-02-03T08:46:44;11.90;;;11.20;;
26062;SDS011;13837;48.562;12.108;2023-02-03T08:49:10;11.85;;;11.15;;
26062;SDS011;13837;48.562;12.108;2023-02-03T08:51:36;12.15;;;11.45;;
26062;SDS011;13837;48.562;12.108;2023-02-03T08:54:03;12.02;;;11.43;;
26062;SDS011;13837;48.562;12.108;2023-02-03T08:56:29;12.18;;;11.48;;
26062;SDS011;13837;48.562;12.108;2023-02-03T08:58:55;12.15;;;11.65;;
26062;SDS011;13837;48.562;12.108;2023-02-03T09:01:21;12.70;;;11.80;;
26062;SDS011;13837;48.562;12.108;2023-02-03T09:03:47;12.70;;;12.00;;
26062;SDS011;13837;48.562;12.108;2023-02-03T09:06:13;12.07;;;11.43;;
26062;SDS011;13837;48.562;12.108;2023-02-03T09:08:41;11.77;;;11.13;;
26062;SDS011;13837;48.562;12.108;2023-02-03T09:11:08;11.27;;;10.77;;
26062;SDS011;13837;48.562;12.108;2023-02-03T09:13:35;12.05;;;11.45;;
26062;SDS011;13837;48.562;12.108;2023-02-03T09:16:01;12.13;;;11.52;;
26062;SDS011;13837;48.562;12.108;2023-02-03T09:18:28;11.50;;;11.00;;
26062;SDS011;13837;48.562;12.108;2023-02-03T09:20:59;12.00;;;11.50;;
26062;SDS011;13837;48.562;12.108;2023-02-03T09:23:25;12.05;;;11.45;;
26062;SDS011;13837;48.562;12.108;2023-02-03T09:25:52;12.50;;;11.90;;
26062;SDS011;13837;48.562;12.108;2023-02-03T09:28:18;11.90;;;11.30;;
26062;SDS011;13837;48.562;12.108;2023-02-03T09:30:44;11.75;;;11.15;;
26062;SDS011;13837;48.562;12.108;2023-02-03T09:33:11;12.00;;;11.30;;
26062;SDS011;13837;48.562;12.108;2023-02-03T09:35:37;12.10;;;11.50;;
26062;SDS011;13837;48.562;12.108;2023-02-03T09:38:04;13.32;;;12.52;;
26062;SDS011;13837;48.562;12.108;2023-02-03T09:40:32;12.40;;;11.57;;
26062;SDS011;13837;48.562;12.108;2023-02-03T09:43:01;12.35;;;11.38;;
26062;SDS011;13837;48.562;12.108;2023-02-03T09:47:56;11.90;;;11.32;;
26062;SDS011;13837;48.562;12.108;2023-02-03T09:50:24;12.07;;;11.38;;
26062;SDS011;13837;48.562;12.108;2023-02-03T09:52:51;11.75;;;11.20;;
26062;SDS011;13837;48.562;12.108;2023-02-03T09:58:16;12.32;;;11.63;;
26062;SDS011;13837;48.562;12.108;2023-02-03T10:00:58;11.63;;;11.13;;
26062;SDS011;13837;48.562;12.108;2023-02-03T10:03:35;12.45;;;11.65;;
26062;SDS011;13837;48.562;12.108;2023-02-03T10:06:19;12.07;;;11.50;;
26062;SDS011;13837;48.562;12.108;2023-02-03T10:14:07;11.27;;;10.82;;
26062;SDS011;13837;48.562;12.108;2023-02-03T10:19:14;11.50;;;11.00;;
26062;SDS011;13837;48.562;12.108;2023-02-03T10:21:42;11.90;;;11.20;;
26062;SDS011;13837;48.562;12.108;2023-02-03T10:24:14;11.48;;;10.95;;
26062;SDS011;13837;48.562;12.108;2023-02-03T10:26:42;11.85;;;11.15;;
26062;SDS011;13837;48.562;12.108;2023-02-03T10:29:25;12.60;;;11.80;;
26062;SDS011;13837;48.562;12.108;2023-02-03T10:31:53;11.93;;;11.32;;
26062;SDS011;13837;48.562;12.108;2023-02-03T10:34:19;11.57;;;11.07;;
26062;SDS011;13837;48.562;12.108;2023-02-03T10:39:23;11.50;;;10.90;;
26062;SDS011;13837;48.562;12.108;2023-02-03T10:41:49;11.50;;;11.00;;
26062;SDS011;13837;48.562;12.108;2023-02-03T10:44:15;10.82;;;10.40;;
26062;SDS011;13837;48.562;12.108;2023-02-03T10:46:42;11.38;;;10.88;;
26062;SDS011;13837;48.562;12.108;2023-02-03T10:49:10;11.13;;;10.63;;
26062;SDS011;13837;48.562;12.108;2023-02-03T10:51:47;10.80;;;10.40;;
26062;SDS011;13837;48.562;12.108;2023-02-03T10:54:28;11.82;;;11.23;;
26062;SDS011;13837;48.562;12.108;2023-02-03T10:56:57;11.80;;;11.20;;
26062;SDS011;13837;48.562;12.108;2023-02-03T10:59:27;12.00;;;11.30;;
26062;SDS011;13837;48.562;12.108;2023-02-03T11:01:54;11.93;;;11.10;;
26062;SDS011;13837;48.562;12.108;2023-02-03T11:04:24;11.15;;;10.70;;
26062;SDS011;13837;48.562;12.108;2023-02-03T11:06:55;11.48;;;10.95;;
26062;SDS011;13837;48.562;12.108;2023-02-03T11:09:32;12.30;;;11.40;;
26062;SDS011;13837;48.562;12.108;2023-02-03T11:12:04;12.57;;;11.88;;
26062;SDS011;13837;48.562;12.108;2023-02-03T11:14:35;12.57;;;11.88;;
26062;SDS011;13837;48.562;12.108;2023-02-03T11:17:07;11.73;;;11.05;;
26062;SDS011;13837;48.562;12.108;2023-02-03T11:19:34;11.70;;;11.20;;
26062;SDS011;13837;48.562;12.108;2023-02-03T11:22:01;11.10;;;10.60;;
26062;SDS011;13837;48.562;12.108;2023-02-03T11:24:31;11.70;;;11.00;;
26062;SDS011;13837;48.562;12.108;2023-02-03T11:29:25;11.57;;;11.10;;
26062;SDS011;13837;48.562;12.108;2023-02-03T11:31:53;11.68;;;11.18;;
26062;SDS011;13837;48.562;12.108;2023-02-03T11:34:21;11.90;;;11.40;;
26062;SDS011;13837;48.562;12.108;2023-02-03T11:36:50;11.50;;;10.90;;
26062;SDS011;13837;48.562;12.108;2023-02-03T11:39:18;11.32;;;10.82;;
26062;SDS011;13837;48.562;12.108;2023-02-03T11:41:44;11.80;;;11.20;;
26062;SDS011;13837;48.562;12.108;2023-02-03T11:44:16;11.45;;;10.95;;
26062;SDS011;13837;48.562;12.108;2023-02-03T11:46:42;11.48;;;10.88;;
26062;SDS011;13837;48.562;12.108;2023-02-03T11:51:47;11.90;;;11.30;;
26062;SDS011;13837;48.562;12.108;2023-02-03T11:57:27;11.68;;;11.02;;
26062;SDS011;13837;48.562;12.108;2023-02-03T12:02:36;10.93;;;10.40;;
26062;SDS011;13837;48.562;12.108;2023-02-03T12:07:59;11.40;;;10.90;;
26062;SDS011;13837;48.562;12.108;2023-02-03T12:15:28;10.85;;;10.35;;
26062;SDS011;13837;48.562;12.108;2023-02-03T12:20:28;11.82;;;11.27;;
26062;SDS011;13837;48.562;12.108;2023-02-03T12:25:58;10.82;;;10.38;;
26062;SDS011;13837;48.562;12.108;2023-02-03T12:30:59;10.23;;;9.82;;
26062;SDS011;13837;48.562;12.108;2023-02-03T12:33:35;11.40;;;10.80;;
26062;SDS011;13837;48.562;12.108;2023-02-03T12:36:14;10.65;;;10.25;;
26062;SDS011;13837;48.562;12.108;2023-02-03T12:38:42;11.10;;;10.60;;
26062;SDS011;13837;48.562;12.108;2023-02-03T12:41:10;10.40;;;9.90;;
26062;SDS011;13837;48.562;12.108;2023-02-03T12:43:41;10.20;;;9.80;;
26062;SDS011;13837;48.562;12.108;2023-02-03T12:46:21;10.27;;;9.68;;
26062;SDS011;13837;48.562;12.108;2023-02-03T12:51:35;11.20;;;10.50;;
26062;SDS011;13837;48.562;12.108;2023-02-03T12:54:07;10.90;;;10.35;;
26062;SDS011;13837;48.562;12.108;2023-02-03T12:56:38;10.35;;;9.95;;
26062;SDS011;13837;48.562;12.108;2023-02-03T12:59:11;11.07;;;10.30;;
26062;SDS011;13837;48.562;12.108;2023-02-03T13:07:03;11.05;;;10.48;;
26062;SDS011;13837;48.562;12.108;2023-02-03T13:11:59;10.60;;;10.00;;
26062;SDS011;13837;48.562;12.108;2023-02-03T13:14:40;11.63;;;11.02;;
26062;SDS011;13837;48.562;12.108;2023-02-03T13:17:18;11.55;;;10.95;;
26062;SDS011;13837;48.562;12.108;2023-02-03T13:19:46;11.98;;;11.20;;
26062;SDS011;13837;48.562;12.108;2023-02-03T13:22:13;11.00;;;10.50;;
26062;SDS011;13837;48.562;12.108;2023-02-03T13:24:52;11.40;;;10.90;;
26062;SDS011;13837;48.562;12.108;2023-02-03T13:32:45;11.13;;;10.52;;
26062;SDS011;13837;48.562;12.108;2023-02-03T13:35:31;10.90;;;10.50;;
26062;SDS011;13837;48.562;12.108;2023-02-03T13:40:41;10.68;;;10.20;;
26062;SDS011;13837;48.562;12.108;2023-02-03T13:43:13;11.00;;;10.60;;
26062;SDS011;13837;48.562;12.108;2023-02-03T13:45:41;11.25;;;10.60;;
26062;SDS011;13837;48.562;12.108;2023-02-03T13:48:09;11.38;;;10.90;;
26062;SDS011;13837;48.562;12.108;2023-02-03T13:50:36;11.07;;;10.57;;
26062;SDS011;13837;48.562;12.108;2023-02-03T13:53:03;10.80;;;10.32;;
26062;SDS011;13837;48.562;12.108;2023-02-03T13:55:42;10.85;;;10.35;;
26062;SDS011;13837;48.562;12.108;2023-02-03T13:58:19;10.57;;;10.18;;
26062;SDS011;13837;48.562;12.108;2023-02-03T14:05:42;10.50;;;10.10;;
26062;SDS011;13837;48.562;12.108;2023-02-03T14:13:35;10.65;;;10.10;;
26062;SDS011;13837;48.562;12.108;2023-02-03T14:18:46;10.30;;;9.90;;
26062;SDS011;13837;48.562;12.108;2023-02-03T14:21:13;10.20;;;9.80;;
26062;SDS011;13837;48.562;12.108;2023-02-03T14:23:42;12.18;;;11.43;;
26062;SDS011;13837;48.562;12.108;2023-02-03T14:26:19;10.70;;;10.20;;
26062;SDS011;13837;48.562;12.108;2023-02-03T14:28:46;10.68;;;10.07;;
26062;SDS011;13837;48.562;12.108;2023-02-03T14:31:15;10.48;;;9.88;;
26062;SDS011;13837;48.562;12.108;2023-02-03T14:33:43;10.50;;;10.02;;
26062;SDS011;13837;48.562;12.108;2023-02-03T14:38:55;10.50;;;10.00;;
26062;SDS011;13837;48.562;12.108;2023-02-03T14:41:25;11.10;;;10.52;;
26062;SDS011;13837;48.562;12.108;2023-02-03T14:44:14;10.30;;;9.90;;
26062;SDS011;13837;48.562;12.108;2023-02-03T14:49:29;11.13;;;10.52;;
26062;SDS011;13837;48.562;12.108;2023-02-03T15:07:54;10.80;;;10.30;;
26062;SDS011;13837;48.562;12.108;2023-02-03T15:10:26;10.80;;;10.40;;
26062;SDS011;13837;48.562;12.108;2023-02-03T15:12:55;10.88;;;10.38;;
26062;SDS011;13837;48.562;12.108;2023-02-03T15:15:23;10.45;;;10.00;;
26062;SDS011;13837;48.562;12.108;2023-02-03T15:17:49;11.02;;;10.43;;
26062;SDS011;13837;48.562;12.108;2023-02-03T15:20:31;10.95;;;10.30;;
26062;SDS011;13837;48.562;12.108;2023-02-03T15:22:58;10.57;;;10.18;;
26062;SDS011;13837;48.562;12.108;2023-02-03T15:25:24;10.50;;;10.10;;
26062;SDS011;13837;48.562;12.108;2023-02-03T15:27:51;10.68;;;10.18;;
26062;SDS011;13837;48.562;12.108;2023-02-03T15:30:24;10.50;;;10.10;;
26062;SDS011;13837;48.562;12.108;2023-02-03T15:35:25;10.23;;;9.82;;
26062;SDS011;13837;48.562;12.108;2023-02-03T15:37:53;10.65;;;10.10;;
26062;SDS011;13837;48.562;12.108;2023-02-03T15:40:21;11.13;;;10.63;;
26062;SDS011;13837;48.562;12.108;2023-02-03T15:42:53;11.55;;;10.98;;
26062;SDS011;13837;48.562;12.108;2023-02-03T15:45:30;11.00;;;10.50;;
26062;SDS011;13837;48.562;12.108;2023-02-03T15:48:05;11.30;;;10.70;;
26062;SDS011;13837;48.562;12.108;2023-02-03T15:50:42;11.40;;;10.90;;
26062;SDS011;13837;48.562;12.108;2023-02-03T15:53:13;19.95;;;18.35;;
26062;SDS011;13837;48.562;12.108;2023-02-03T15:55:41;12.68;;;11.80;;
26062;SDS011;13837;48.562;12.108;2023-02-03T15:58:18;13.27;;;12.45;;
26062;SDS011;13837;48.562;12.108;2023-02-03T16:00:52;13.57;;;12.77;;
26062;SDS011;13837;48.562;12.108;2023-02-03T16:03:20;14.38;;;13.48;;
26062;SDS011;13837;48.562;12.108;2023-02-03T16:05:47;11.75;;;11.25;;
26062;SDS011;13837;48.562;12.108;2023-02-03T16:08:24;12.18;;;11.43;;
26062;SDS011;13837;48.562;12.108;2023-02-03T16:10:51;10.60;;;10.00;;
26062;SDS011;13837;48.562;12.108;2023-02-03T16:13:22;11.13;;;10.63;;
26062;SDS011;13837;48.562;12.108;2023-02-03T16:15:59;11.00;;;10.50;;
26062;SDS011;13837;48.562;12.108;2023-02-03T16:18:25;11.80;;;11.20;;